Time;durP1;ratioP1;P1;durP2;ratioP2;P2;SDS_P1;SDS_P2;PMS_P1;PMS_P2;Temp;Humidity;BMP_temperature;BMP_pressure;BME280_temperature;BME280_humidity;BME280_pressure;Samples;Min_cycle;Max_cycle;Signal;HPM_P1;HPM_P2
2021/12/05 00:18:26;;;;;;;13.90;13.50;;;18.10;68.00;;;;;;5052468;28;20522;-61
2021/12/05 00:21:31;;;;;;;13.70;13.30;;;18.10;68.20;;;;;;5052675;28;20444;-60
2021/12/05 00:24:00;;;;;;;14.70;14.20;;;18.10;68.50;;;;;;5051632;28;20454;-60
2021/12/05 00:26:28;;;;;;;14.17;13.67;;;18.10;68.70;;;;;;5052351;28;20942;-58
2021/12/05 00:31:52;;;;;;;14.10;13.20;;;18.00;68.90;;;;;;5052133;28;20444;-59
2021/12/05 00:40:32;;;;;;;14.47;13.87;;;17.90;69.70;;;;;;5052222;28;20514;-60
2021/12/05 00:54:41;;;;;;;14.17;13.60;;;17.90;70.20;;;;;;5026076;28;20612;-60
2021/12/05 00:57:37;;;;;;;14.00;13.50;;;17.90;70.50;;;;;;5051414;28;21000;-59
2021/12/05 01:03:10;;;;;;;13.10;12.70;;;17.90;71.00;;;;;;5051782;28;20443;-60
2021/12/05 01:11:29;;;;;;;14.03;13.63;;;17.80;71.40;;;;;;5051741;28;20471;-58
2021/12/05 01:14:11;;;;;;;14.17;13.70;;;17.80;71.90;;;;;;5051375;28;20444;-60
2021/12/05 01:16:40;;;;;;;14.43;13.93;;;17.80;72.30;;;;;;5051610;28;20443;-58
2021/12/05 01:19:10;;;;;;;14.00;13.60;;;17.90;72.40;;;;;;5051489;28;20468;-59
2021/12/05 01:21:39;;;;;;;13.93;13.43;;;17.90;72.50;;;;;;5051335;28;20448;-60
2021/12/05 01:24:17;;;;;;;14.47;13.97;;;17.90;72.30;;;;;;5051527;28;20834;-59
2021/12/05 01:26:51;;;;;;;13.80;13.30;;;17.90;72.50;;;;;;5051277;28;20478;-60
2021/12/05 01:29:28;;;;;;;13.90;13.40;;;17.80;72.40;;;;;;5051372;28;21035;-56
2021/12/05 01:32:05;;;;;;;13.30;12.80;;;17.80;72.80;;;;;;5051191;28;20472;-60
2021/12/05 01:34:46;;;;;;;14.00;13.50;;;17.80;72.70;;;;;;5051214;28;20530;-59
2021/12/05 01:37:25;;;;;;;14.40;13.87;;;17.80;72.70;;;;;;5051205;28;20562;-60
2021/12/05 01:40:21;;;;;;;14.27;13.77;;;17.80;73.00;;;;;;5051184;28;20440;-59
2021/12/05 01:43:30;;;;;;;14.37;13.87;;;17.80;73.10;;;;;;5051103;28;20448;-60
2021/12/05 01:46:34;;;;;;;13.57;13.17;;;17.70;73.10;;;;;;5051172;28;20446;-59
2021/12/05 01:49:19;;;;;;;13.90;13.50;;;17.70;73.30;;;;;;5031516;28;20808;-60
2021/12/05 01:52:18;;;;;;;14.27;13.77;;;17.70;73.50;;;;;;5031076;28;20566;-57
2021/12/05 02:08:58;;;;;;;14.07;13.67;;;17.70;74.00;;;;;;5049266;28;20448;-56
2021/12/05 02:34:05;;;;;;;13.50;13.10;;;17.50;75.50;;;;;;5014468;28;20427;-59
2021/12/05 02:42:30;;;;;;;13.47;13.07;;;17.60;75.30;;;;;;4988807;28;20510;-60
2021/12/05 02:44:57;;;;;;;13.47;13.07;;;17.60;75.30;;;;;;5038944;28;20899;-59
2021/12/05 02:47:27;;;;;;;14.70;14.20;;;17.60;75.20;;;;;;5052974;28;20475;-60
2021/12/05 02:50:01;;;;;;;13.70;13.30;;;17.60;75.50;;;;;;5054188;28;20491;-60
2021/12/05 02:52:32;;;;;;;14.20;13.70;;;17.60;75.70;;;;;;5053803;28;20454;-60
2021/12/05 02:55:07;;;;;;;13.80;13.40;;;17.50;76.80;;;;;;5054216;28;20448;-60
2021/12/05 02:57:50;;;;;;;14.37;13.70;;;17.50;76.90;;;;;;5054061;28;20463;-60
2021/12/05 03:00:23;;;;;;;13.90;13.50;;;17.50;77.20;;;;;;5054084;28;20535;-61
2021/12/05 03:02:53;;;;;;;14.33;13.83;;;17.50;77.10;;;;;;5053943;28;20521;-61
2021/12/05 03:05:22;;;;;;;14.50;13.90;;;17.50;76.90;;;;;;5053823;28;21064;-60
2021/12/05 03:07:50;;;;;;;13.90;13.50;;;17.40;77.50;;;;;;5053951;28;20467;-61
2021/12/05 03:10:22;;;;;;;13.97;13.47;;;17.40;77.70;;;;;;5053798;28;20491;-61
2021/12/05 03:12:48;;;;;;;14.70;14.20;;;17.40;77.60;;;;;;5053529;28;20448;-61
2021/12/05 03:15:18;;;;;;;14.00;13.60;;;17.50;77.60;;;;;;5053650;28;20821;-61
2021/12/05 03:17:45;;;;;;;14.40;13.90;;;17.50;77.60;;;;;;5053411;28;20472;-61
2021/12/05 03:20:13;;;;;;;13.50;13.10;;;17.40;78.00;;;;;;5053710;28;20449;-59
2021/12/05 03:22:40;;;;;;;13.77;13.30;;;17.40;78.10;;;;;;5053342;28;20440;-61
2021/12/05 03:25:09;;;;;;;13.70;13.20;;;17.50;77.90;;;;;;5053567;28;20452;-61
2021/12/05 03:27:39;;;;;;;13.67;13.27;;;17.40;77.50;;;;;;5053454;28;20836;-62
2021/12/05 03:30:08;;;;;;;14.00;13.50;;;17.50;77.10;;;;;;5053029;28;21004;-60
2021/12/05 03:32:39;;;;;;;14.03;13.53;;;17.50;77.10;;;;;;5053269;28;20459;-61
2021/12/05 03:35:09;;;;;;;13.80;13.40;;;17.40;77.10;;;;;;5053512;28;20475;-61
2021/12/05 03:37:36;;;;;;;14.30;13.73;;;17.40;77.10;;;;;;5053103;28;21008;-61
2021/12/05 03:40:06;;;;;;;14.40;13.90;;;17.40;77.30;;;;;;5053289;28;20452;-61
2021/12/05 03:42:33;;;;;;;14.60;14.00;;;17.40;77.90;;;;;;5052911;28;20444;-61
2021/12/05 03:45:03;;;;;;;14.40;13.90;;;17.20;78.70;;;;;;5053273;28;20459;-61
2021/12/05 03:47:30;;;;;;;15.03;14.33;;;17.30;79.20;;;;;;5053187;28;20464;-61
2021/12/05 03:49:57;;;;;;;13.33;12.90;;;17.30;79.20;;;;;;5052899;28;20540;-61
2021/12/05 03:52:24;;;;;;;14.83;14.33;;;17.30;79.20;;;;;;5052985;28;20448;-62
2021/12/05 03:54:51;;;;;;;14.33;13.87;;;17.20;79.80;;;;;;5053024;28;20455;-61
2021/12/05 03:57:18;;;;;;;14.23;13.73;;;17.10;80.70;;;;;;5052538;28;20876;-62
2021/12/05 03:59:45;;;;;;;14.57;13.97;;;17.10;81.30;;;;;;5052905;28;20455;-61
2021/12/05 04:02:13;;;;;;;12.73;12.43;;;17.10;81.40;;;;;;5052722;28;20517;-61
2021/12/05 04:04:40;;;;;;;14.20;13.70;;;17.10;81.70;;;;;;5052769;28;20452;-61
2021/12/05 04:07:08;;;;;;;14.67;14.03;;;17.10;81.80;;;;;;5052549;28;20476;-60
2021/12/05 04:09:36;;;;;;;14.67;14.17;;;17.10;81.90;;;;;;5052701;28;20494;-61
2021/12/05 04:12:04;;;;;;;13.80;13.40;;;17.20;82.30;;;;;;5052524;28;20814;-62
2021/12/05 04:14:34;;;;;;;13.63;13.23;;;17.10;82.30;;;;;;5052657;28;20459;-61
2021/12/05 04:17:03;;;;;;;13.87;13.47;;;17.10;82.60;;;;;;5052503;28;20451;-60
2021/12/05 04:19:31;;;;;;;13.67;13.27;;;17.00;83.20;;;;;;5052386;28;20455;-61
2021/12/05 04:21:58;;;;;;;13.20;12.80;;;17.00;83.20;;;;;;5052222;28;20441;-60
2021/12/05 04:24:25;;;;;;;14.40;13.43;;;17.10;83.90;;;;;;5052475;28;20444;-61
2021/12/05 04:26:52;;;;;;;13.93;13.53;;;17.00;84.00;;;;;;5052422;28;20833;-61
2021/12/05 04:29:19;;;;;;;13.80;13.40;;;17.20;84.20;;;;;;5052567;28;20482;-61
2021/12/05 04:31:47;;;;;;;13.87;13.40;;;17.10;84.50;;;;;;5051907;28;20482;-60
2021/12/05 04:34:14;;;;;;;14.30;13.80;;;17.10;84.60;;;;;;5052222;28;20460;-61
2021/12/05 04:36:44;;;;;;;15.50;14.90;;;17.10;84.90;;;;;;5052200;28;20444;-61
2021/12/05 04:39:12;;;;;;;14.20;13.70;;;17.10;85.20;;;;;;5052064;28;20476;-61
2021/12/05 04:41:40;;;;;;;14.17;13.67;;;17.10;85.50;;;;;;5051906;28;20432;-61
2021/12/05 04:44:08;;;;;;;13.90;13.40;;;17.10;85.60;;;;;;5052114;28;20448;-61
2021/12/05 04:46:35;;;;;;;13.87;13.37;;;17.10;85.70;;;;;;5052055;28;20480;-60
2021/12/05 04:49:03;;;;;;;15.00;14.50;;;17.10;86.10;;;;;;5051696;28;20503;-61
2021/12/05 04:51:33;;;;;;;14.13;13.67;;;17.10;86.70;;;;;;5051469;28;20890;-61
2021/12/05 04:54:02;;;;;;;14.10;13.60;;;17.00;86.60;;;;;;5051871;28;20452;-61
2021/12/05 04:56:29;;;;;;;14.20;13.70;;;17.10;86.80;;;;;;5051821;28;20444;-59
2021/12/05 04:58:58;;;;;;;14.47;13.97;;;17.00;86.60;;;;;;5051768;28;20831;-59
2021/12/05 05:01:25;;;;;;;14.00;13.60;;;17.00;87.20;;;;;;5051512;28;20452;-59
2021/12/05 05:03:52;;;;;;;14.00;13.60;;;17.00;87.20;;;;;;5051662;28;20449;-61
2021/12/05 05:06:20;;;;;;;14.93;14.47;;;17.00;87.60;;;;;;5051694;28;20464;-60
2021/12/05 05:08:51;;;;;;;14.50;14.10;;;17.00;87.50;;;;;;5051217;28;20499;-61
2021/12/05 05:11:21;;;;;;;14.23;13.83;;;17.00;88.20;;;;;;5051922;28;20490;-61
2021/12/05 05:13:48;;;;;;;14.40;14.00;;;17.00;87.70;;;;;;5051303;28;20452;-60
2021/12/05 05:16:16;;;;;;;15.33;14.73;;;16.90;88.20;;;;;;5051380;28;20460;-59
2021/12/05 05:18:47;;;;;;;14.47;13.97;;;17.00;88.30;;;;;;5051481;28;21063;-60
2021/12/05 05:21:27;;;;;;;14.10;13.60;;;17.00;88.20;;;;;;5051709;28;20440;-60
2021/12/05 05:24:13;;;;;;;14.40;14.00;;;17.00;88.20;;;;;;5051378;28;20972;-60
2021/12/05 05:29:44;;;;;;;14.80;14.30;;;17.00;88.00;;;;;;5010402;28;20436;-61
2021/12/05 05:40:42;;;;;;;14.67;14.17;;;17.00;88.30;;;;;;5051523;28;20446;-57
2021/12/05 05:43:25;;;;;;;14.90;14.40;;;17.00;88.50;;;;;;5051194;28;20471;-59
2021/12/05 05:46:01;;;;;;;13.77;13.37;;;17.00;88.50;;;;;;5051445;28;20455;-58
2021/12/05 05:48:42;;;;;;;14.63;14.13;;;17.00;88.50;;;;;;5050518;28;20880;-57
2021/12/05 05:51:11;;;;;;;14.40;13.90;;;17.00;89.10;;;;;;5042148;28;20484;-55
2021/12/05 05:53:38;;;;;;;14.97;14.47;;;18.20;86.50;;;;;;5050765;28;20454;-58
2021/12/05 05:56:12;;;;;;;14.57;14.03;;;19.10;78.70;;;;;;5051183;28;20968;-57
2021/12/05 05:58:42;;;;;;;15.03;14.53;;;19.70;74.30;;;;;;5051077;28;20468;-57
2021/12/05 06:01:18;;;;;;;15.40;14.83;;;20.10;71.00;;;;;;5051047;28;20561;-59
2021/12/05 06:03:44;;;;;;;14.47;13.97;;;20.40;68.40;;;;;;5050960;28;20530;-57
2021/12/05 06:06:13;;;;;;;14.40;14.00;;;20.60;66.30;;;;;;5051267;28;21033;-57
2021/12/05 06:08:41;;;;;;;14.50;14.10;;;20.50;65.10;;;;;;5050972;28;20582;-58
2021/12/05 06:11:10;;;;;;;15.20;14.70;;;20.60;64.40;;;;;;5051073;28;20556;-58
2021/12/05 06:13:38;;;;;;;16.13;15.53;;;20.80;63.50;;;;;;5050622;28;20791;-60
2021/12/05 06:16:07;;;;;;;13.97;13.50;;;20.80;62.60;;;;;;5050938;28;20483;-60
2021/12/05 06:18:34;;;;;;;13.90;13.50;;;20.80;62.00;;;;;;5051029;28;20476;-57
2021/12/05 06:21:01;;;;;;;13.83;13.43;;;20.70;61.90;;;;;;5051371;28;20459;-58
2021/12/05 06:23:28;;;;;;;14.50;14.00;;;20.80;61.40;;;;;;5054587;28;20458;-57
2021/12/05 06:25:56;;;;;;;13.43;13.03;;;20.70;60.90;;;;;;5054455;28;20452;-59
2021/12/05 06:28:29;;;;;;;14.03;13.63;;;20.70;60.60;;;;;;5054558;28;20503;-57
2021/12/05 06:31:02;;;;;;;14.67;14.20;;;20.70;60.30;;;;;;5054603;28;20569;-59
2021/12/05 06:42:09;;;;;;;14.20;13.80;;;20.60;59.70;;;;;;5054424;28;20827;-57
2021/12/05 06:47:25;;;;;;;13.40;13.00;;;20.50;59.70;;;;;;5054405;28;20435;-57
2021/12/05 06:49:54;;;;;;;14.53;14.03;;;20.40;59.70;;;;;;5054331;28;20440;-58
2021/12/05 06:52:21;;;;;;;14.60;14.10;;;20.40;59.80;;;;;;5053905;28;20537;-59
2021/12/05 06:54:48;;;;;;;13.57;13.17;;;20.30;59.70;;;;;;5053983;28;20445;-59
2021/12/05 06:57:15;;;;;;;14.00;13.53;;;20.30;59.80;;;;;;5053773;28;20471;-57
2021/12/05 06:59:45;;;;;;;14.20;13.80;;;20.30;59.90;;;;;;5054100;28;20450;-59
2021/12/05 07:02:13;;;;;;;14.27;13.87;;;20.20;60.00;;;;;;5053821;28;20452;-59
2021/12/05 07:04:55;;;;;;;14.20;13.80;;;20.10;60.10;;;;;;5054033;28;20797;-59
2021/12/05 07:07:26;;;;;;;14.57;13.97;;;20.10;60.60;;;;;;5053697;28;20525;-59
2021/12/05 07:09:53;;;;;;;9.67;9.37;;;20.00;60.70;;;;;;5046416;28;20453;-59
2021/12/05 07:15:08;;;;;;;9.50;9.20;;;19.90;61.90;;;;;;5046534;28;20962;-60
2021/12/05 07:20:16;;;;;;;9.67;9.37;;;19.80;62.60;;;;;;5053651;28;20976;-57
2021/12/05 07:23:01;;;;;;;9.90;9.60;;;19.60;63.30;;;;;;5052637;28;20198;-59
2021/12/05 07:25:31;;;;;;;10.40;9.90;;;19.80;65.70;;;;;;5033784;28;20466;-56
2021/12/05 07:41:48;;;;;;;10.80;10.17;;;19.90;92.30;;;;;;5053407;28;20431;-59
2021/12/05 07:44:16;;;;;;;12.50;11.40;;;19.80;92.60;;;;;;5053643;28;20987;-57
2021/12/05 07:46:42;;;;;;;10.87;10.00;;;19.80;92.60;;;;;;5054105;28;20447;-56
2021/12/05 07:49:10;;;;;;;11.70;10.60;;;19.80;92.40;;;;;;5053617;28;20464;-59
2021/12/05 07:51:40;;;;;;;10.20;9.60;;;19.80;92.40;;;;;;5053322;28;20869;-55
2021/12/05 07:54:13;;;;;;;10.43;9.83;;;19.80;92.30;;;;;;5053155;28;20449;-58
2021/12/05 07:56:45;;;;;;;11.27;10.63;;;19.70;92.00;;;;;;5053136;28;20446;-57
2021/12/05 07:59:30;;;;;;;11.30;10.43;;;19.60;91.80;;;;;;5046640;28;20519;-57
2021/12/05 08:15:45;;;;;;;9.67;9.23;;;19.20;91.50;;;;;;5036696;28;20447;-55
2021/12/05 08:18:12;;;;;;;10.20;9.67;;;19.10;91.80;;;;;;5034240;28;20527;-58
2021/12/05 08:20:43;;;;;;;10.77;10.30;;;19.10;92.00;;;;;;5036087;28;20949;-56
2021/12/05 08:23:12;;;;;;;9.93;9.17;;;19.00;92.10;;;;;;5031895;28;20433;-57
2021/12/05 08:25:43;;;;;;;10.60;10.10;;;19.00;92.20;;;;;;5032741;28;20503;-59
2021/12/05 08:28:24;;;;;;;11.60;11.00;;;19.00;91.90;;;;;;5032534;28;20469;-59
2021/12/05 08:31:03;;;;;;;11.60;11.10;;;19.00;91.90;;;;;;5033858;28;20495;-57
2021/12/05 08:33:42;;;;;;;11.13;10.53;;;19.00;91.90;;;;;;5051616;28;20475;-61
2021/12/05 08:39:26;;;;;;;9.50;8.80;;;18.80;91.70;;;;;;5041314;28;21103;-60
2021/12/05 08:42:16;;;;;;;9.07;8.53;;;18.80;91.50;;;;;;5051551;28;20444;-56
2021/12/05 09:23:55;;;;;;;8.93;8.63;;;18.00;88.20;;;;;;5015074;28;20436;-60
2021/12/05 09:26:40;;;;;;;9.60;9.30;;;18.00;88.10;;;;;;5051519;28;20490;-59
2021/12/05 09:40:28;;;;;;;10.83;10.43;;;18.10;86.00;;;;;;5051490;28;20498;-59
2021/12/05 09:51:44;;;;;;;10.17;9.83;;;18.50;81.50;;;;;;5051321;28;20431;-60
2021/12/05 10:08:15;;;;;;;9.87;9.47;;;18.50;78.50;;;;;;5055175;28;20812;-57
2021/12/05 10:10:52;;;;;;;9.70;9.30;;;18.60;78.20;;;;;;5055049;28;20455;-58
2021/12/05 10:13:26;;;;;;;10.40;9.90;;;18.60;77.80;;;;;;5054909;28;20513;-59
2021/12/05 10:16:07;;;;;;;10.03;9.73;;;18.50;77.70;;;;;;5054892;28;20952;-60
2021/12/05 10:19:16;;;;;;;9.93;9.43;;;18.50;77.50;;;;;;5054886;28;20474;-59
2021/12/05 10:35:49;;;;;;;9.97;9.67;;;18.50;75.60;;;;;;5054742;28;20791;-58
2021/12/05 10:38:20;;;;;;;9.57;9.27;;;18.40;75.60;;;;;;5054353;28;20514;-57
2021/12/05 10:40:56;;;;;;;10.10;9.80;;;18.40;75.50;;;;;;5054529;28;20517;-59
2021/12/05 10:43:26;;;;;;;9.53;9.23;;;18.40;75.50;;;;;;5054231;28;20436;-59
2021/12/05 10:45:55;;;;;;;8.50;8.30;;;18.40;75.40;;;;;;5054393;28;20810;-56
2021/12/05 10:48:25;;;;;;;10.10;9.90;;;18.40;75.20;;;;;;5054123;28;21044;-59
2021/12/05 10:50:54;;;;;;;9.67;9.33;;;18.40;75.10;;;;;;5054395;28;20858;-59
2021/12/05 10:53:29;;;;;;;9.63;9.33;;;18.40;75.00;;;;;;5053988;28;20487;-57
2021/12/05 10:56:07;;;;;;;9.30;9.00;;;18.30;74.70;;;;;;5054203;28;20459;-61
2021/12/05 10:58:38;;;;;;;9.13;8.77;;;18.20;74.80;;;;;;5054147;28;20460;-60
2021/12/05 11:01:08;;;;;;;8.90;8.70;;;18.20;74.90;;;;;;5054085;28;20941;-58
2021/12/05 11:03:35;;;;;;;9.57;9.27;;;18.20;75.00;;;;;;5053036;28;20437;-60
2021/12/05 11:06:25;;;;;;;8.90;8.70;;;18.10;75.00;;;;;;5046073;28;20453;-56
2021/12/05 11:09:10;;;;;;;10.37;9.97;;;18.20;77.00;;;;;;5033742;28;20465;-56
2021/12/05 11:11:43;;;;;;;9.63;9.23;;;18.30;78.40;;;;;;5033763;28;20449;-58
2021/12/05 11:14:17;;;;;;;9.70;9.50;;;18.40;78.20;;;;;;5046333;28;20476;-56
2021/12/05 11:16:56;;;;;;;9.47;9.17;;;18.50;78.80;;;;;;5053857;28;20950;-59
2021/12/05 11:19:35;;;;;;;9.10;8.80;;;19.30;79.70;;;;;;5053858;28;20479;-58
2021/12/05 11:22:18;;;;;;;9.80;9.50;;;20.40;73.70;;;;;;5047771;28;20433;-57
2021/12/05 11:24:52;;;;;;;9.60;9.30;;;21.00;71.10;;;;;;5033953;28;20449;-58
2021/12/05 11:27:39;;;;;;;11.03;10.63;;;21.60;69.20;;;;;;5033727;28;20476;-60
2021/12/05 11:30:14;;;;;;;11.27;10.77;;;22.40;67.10;;;;;;5038580;28;20440;-60
2021/12/05 11:32:55;;;;;;;10.63;10.23;;;22.70;65.90;;;;;;5053239;28;20758;-55
2021/12/05 11:35:38;;;;;;;11.23;10.43;;;23.00;64.30;;;;;;5053589;28;20977;-58
2021/12/05 11:38:18;;;;;;;10.13;9.83;;;23.20;62.90;;;;;;5054091;28;20541;-61
2021/12/05 11:40:58;;;;;;;10.13;9.80;;;23.40;63.00;;;;;;5053455;28;20508;-60
2021/12/05 11:43:33;;;;;;;11.37;10.83;;;23.50;62.80;;;;;;5053098;28;20441;-61
2021/12/05 11:46:19;;;;;;;11.30;10.73;;;23.40;61.30;;;;;;5053384;28;20448;-62
2021/12/05 11:48:54;;;;;;;11.70;11.20;;;23.50;61.10;;;;;;5053245;28;20826;-62
2021/12/05 11:51:36;;;;;;;11.20;10.60;;;23.80;60.70;;;;;;5053439;28;20440;-62
2021/12/05 11:54:18;;;;;;;11.83;11.37;;;24.30;59.30;;;;;;5053075;28;20476;-62
2021/12/05 11:56:59;;;;;;;11.00;10.53;;;24.60;57.90;;;;;;5053239;28;20440;-62
2021/12/05 11:59:31;;;;;;;11.60;11.10;;;24.60;57.10;;;;;;5039901;28;20536;-61
2021/12/05 12:02:02;;;;;;;11.30;10.80;;;24.60;56.70;;;;;;5032740;28;20456;-61
2021/12/05 12:04:45;;;;;;;11.33;10.80;;;24.70;56.40;;;;;;5033299;28;20852;-61
2021/12/05 12:07:18;;;;;;;11.63;11.10;;;24.70;56.00;;;;;;5040752;28;20470;-61
2021/12/05 12:09:46;;;;;;;11.43;10.93;;;24.70;55.80;;;;;;5053007;28;20449;-63
2021/12/05 12:12:15;;;;;;;12.70;11.80;;;24.60;55.70;;;;;;5052666;28;20444;-63
2021/12/05 12:14:43;;;;;;;12.53;11.90;;;24.80;55.60;;;;;;5052498;28;20483;-62
2021/12/05 12:17:16;;;;;;;13.03;12.33;;;24.90;55.20;;;;;;5053075;28;20464;-64
2021/12/05 12:19:45;;;;;;;10.97;10.67;;;24.90;54.80;;;;;;5052508;28;20950;-63
2021/12/05 12:22:12;;;;;;;11.70;11.30;;;24.80;54.80;;;;;;5052688;28;20467;-64
2021/12/05 12:24:40;;;;;;;12.23;11.60;;;24.80;54.80;;;;;;5052326;28;20459;-64
2021/12/05 12:27:08;;;;;;;11.10;10.70;;;24.60;54.70;;;;;;5052704;28;20803;-60
2021/12/05 12:29:37;;;;;;;11.27;10.70;;;24.60;54.80;;;;;;5052123;28;21047;-61
2021/12/05 12:32:12;;;;;;;10.83;10.47;;;24.60;54.90;;;;;;5052587;28;20579;-61
2021/12/05 12:34:40;;;;;;;11.17;10.77;;;24.90;54.90;;;;;;5052177;28;20451;-64
2021/12/05 12:37:07;;;;;;;11.60;10.80;;;25.10;54.10;;;;;;5052043;28;20945;-61
2021/12/05 12:39:37;;;;;;;12.87;12.17;;;25.20;53.10;;;;;;5052346;28;20451;-63
2021/12/05 12:42:10;;;;;;;11.30;10.80;;;25.10;52.80;;;;;;5051747;28;20448;-64
2021/12/05 12:44:38;;;;;;;11.20;10.80;;;25.00;52.70;;;;;;5052238;28;20450;-63
2021/12/05 12:47:07;;;;;;;12.13;11.63;;;25.00;52.70;;;;;;5052061;28;20643;-63
2021/12/05 12:49:36;;;;;;;12.33;11.60;;;24.80;52.60;;;;;;5052067;28;20440;-63
2021/12/05 12:52:07;;;;;;;11.93;11.10;;;24.70;52.70;;;;;;5051640;28;20591;-62
2021/12/05 12:54:37;;;;;;;12.10;11.50;;;24.70;52.60;;;;;;5052073;28;20447;-63
2021/12/05 12:57:09;;;;;;;11.47;11.07;;;24.90;52.70;;;;;;5051930;28;20930;-63
2021/12/05 12:59:42;;;;;;;11.87;11.37;;;25.20;52.20;;;;;;5051945;28;20440;-61
2021/12/05 13:05:34;;;;;;;11.50;11.10;;;25.20;51.40;;;;;;5051759;28;20431;-62
2021/12/05 13:10:53;;;;;;;11.00;10.60;;;25.00;51.30;;;;;;5051295;28;20455;-62
2021/12/05 13:13:25;;;;;;;11.23;10.83;;;25.00;51.40;;;;;;5051041;28;20472;-62
2021/12/05 13:15:59;;;;;;;11.80;11.40;;;24.90;51.40;;;;;;5051560;28;20809;-63
2021/12/05 13:18:30;;;;;;;11.43;11.03;;;24.90;51.50;;;;;;5051407;28;20985;-60
2021/12/05 13:21:03;;;;;;;11.20;10.90;;;25.00;51.50;;;;;;5050576;28;20452;-63
2021/12/05 13:23:37;;;;;;;10.53;10.23;;;25.30;51.10;;;;;;5051292;28;20448;-61
2021/12/05 13:26:12;;;;;;;11.00;10.60;;;25.40;50.50;;;;;;5051361;28;20451;-63
2021/12/05 13:28:42;;;;;;;12.83;12.33;;;25.40;50.30;;;;;;5051313;28;20468;-63
2021/12/05 13:31:34;;;;;;;12.27;11.77;;;25.40;50.20;;;;;;5050819;28;20543;-63
2021/12/05 13:34:22;;;;;;;10.20;9.83;;;25.30;50.10;;;;;;5051327;28;20476;-63
2021/12/05 13:36:52;;;;;;;10.27;9.87;;;25.20;50.10;;;;;;5051067;28;20471;-62
2021/12/05 13:39:36;;;;;;;11.03;10.73;;;25.20;50.10;;;;;;5051340;28;20447;-62
2021/12/05 13:42:05;;;;;;;10.50;10.20;;;25.10;50.20;;;;;;5050828;28;20455;-60
2021/12/05 13:45:05;;;;;;;10.07;9.77;;;25.00;50.80;;;;;;5051387;28;20806;-62
2021/12/05 13:47:37;;;;;;;11.43;11.03;;;25.00;50.30;;;;;;5051320;28;20474;-62
2021/12/05 13:50:28;;;;;;;10.47;10.17;;;25.20;50.20;;;;;;5051229;28;20450;-60
2021/12/05 13:52:57;;;;;;;11.77;11.13;;;25.50;49.80;;;;;;5050979;28;20512;-62
2021/12/05 13:55:36;;;;;;;11.03;10.63;;;25.60;49.40;;;;;;5050952;28;20946;-62
2021/12/05 13:58:21;;;;;;;10.80;10.50;;;25.50;49.40;;;;;;5051270;28;20461;-61
2021/12/05 14:00:53;;;;;;;11.40;11.10;;;25.40;49.30;;;;;;5050899;28;20448;-61
2021/12/05 14:03:42;;;;;;;11.30;10.70;;;25.40;49.40;;;;;;5050874;28;20881;-61
2021/12/05 14:06:34;;;;;;;12.20;11.80;;;25.30;49.40;;;;;;5051063;28;20448;-61
2021/12/05 14:09:06;;;;;;;11.03;10.70;;;25.20;49.30;;;;;;5051234;28;20467;-61
2021/12/05 14:11:35;;;;;;;10.43;10.23;;;25.20;49.50;;;;;;5050515;28;20447;-63
2021/12/05 14:14:04;;;;;;;11.90;11.40;;;25.40;49.50;;;;;;5050917;28;20480;-63
2021/12/05 14:16:33;;;;;;;11.50;10.97;;;25.70;49.10;;;;;;5051137;28;20455;-63
2021/12/05 14:19:01;;;;;;;12.00;11.60;;;25.70;48.50;;;;;;5050801;28;20471;-63
2021/12/05 14:21:28;;;;;;;11.90;11.40;;;25.70;48.30;;;;;;5050395;28;20452;-62
2021/12/05 14:23:59;;;;;;;11.70;11.20;;;25.70;48.30;;;;;;5050736;28;20973;-62
2021/12/05 14:26:27;;;;;;;10.83;10.43;;;25.60;48.30;;;;;;5050806;28;20452;-60
2021/12/05 14:29:03;;;;;;;10.80;10.50;;;25.50;48.40;;;;;;5050893;28;20472;-60
2021/12/05 14:31:33;;;;;;;9.80;9.50;;;25.40;48.50;;;;;;5050109;28;20447;-62
2021/12/05 14:34:02;;;;;;;10.10;9.80;;;25.30;48.60;;;;;;5050787;28;20483;-60
2021/12/05 14:36:31;;;;;;;10.60;10.30;;;25.30;48.80;;;;;;5050855;28;20865;-62
2021/12/05 14:39:27;;;;;;;10.23;9.90;;;25.50;48.90;;;;;;5050537;28;20472;-61
2021/12/05 14:41:57;;;;;;;10.53;10.23;;;25.80;48.30;;;;;;5004806;28;20842;-61
2021/12/05 14:44:24;;;;;;;11.83;11.33;;;25.80;48.10;;;;;;5054332;28;20824;-63
2021/12/05 14:46:56;;;;;;;10.60;10.30;;;25.70;48.10;;;;;;5054349;28;20440;-62
2021/12/05 14:49:26;;;;;;;11.30;10.70;;;25.60;48.10;;;;;;5054270;28;20443;-63
2021/12/05 14:51:54;;;;;;;10.40;10.10;;;25.50;48.10;;;;;;5053791;28;20444;-62
2021/12/05 14:54:26;;;;;;;10.60;10.30;;;25.40;48.20;;;;;;5054003;28;20484;-59
2021/12/05 14:56:53;;;;;;;10.00;9.70;;;25.40;48.50;;;;;;5054156;28;20451;-59
2021/12/05 14:59:21;;;;;;;10.53;10.03;;;25.50;48.50;;;;;;5054218;28;20851;-62
2021/12/05 15:01:53;;;;;;;10.03;9.73;;;25.80;48.30;;;;;;5053690;28;20459;-61
2021/12/05 15:04:25;;;;;;;10.20;9.80;;;26.00;47.80;;;;;;5054045;28;20445;-62
2021/12/05 15:06:52;;;;;;;10.50;10.10;;;26.00;47.50;;;;;;5054074;28;20444;-62
2021/12/05 15:09:24;;;;;;;10.90;10.60;;;25.90;47.50;;;;;;5053989;28;20440;-62
2021/12/05 15:11:53;;;;;;;10.50;10.20;;;25.90;47.40;;;;;;5053571;28;20851;-61
2021/12/05 15:14:20;;;;;;;10.73;10.33;;;25.80;47.40;;;;;;5053523;28;20487;-61
2021/12/05 15:17:09;;;;;;;10.20;9.90;;;25.70;47.50;;;;;;5053745;28;20444;-61
2021/12/05 15:19:41;;;;;;;10.40;10.10;;;25.60;47.70;;;;;;5048114;28;20460;-60
2021/12/05 15:22:09;;;;;;;10.30;10.00;;;25.60;47.70;;;;;;5053300;28;20436;-61
2021/12/05 15:24:36;;;;;;;10.80;10.50;;;25.60;47.80;;;;;;5053606;28;20932;-62
2021/12/05 15:27:10;;;;;;;10.57;10.17;;;25.70;48.40;;;;;;5053480;28;20444;-60
2021/12/05 15:29:37;;;;;;;10.13;9.80;;;25.90;47.60;;;;;;5053665;28;20436;-60
2021/12/05 15:32:05;;;;;;;10.33;10.03;;;26.20;47.20;;;;;;5053067;28;20440;-62
2021/12/05 15:34:34;;;;;;;10.67;10.27;;;26.20;46.80;;;;;;5053359;28;20849;-62
2021/12/05 15:37:09;;;;;;;9.80;9.60;;;26.20;46.80;;;;;;5053273;28;20448;-56
2021/12/05 15:39:38;;;;;;;9.40;9.20;;;26.10;46.70;;;;;;5053361;28;20989;-60
2021/12/05 15:42:16;;;;;;;10.10;9.70;;;26.00;46.80;;;;;;5053067;28;20440;-55
2021/12/05 15:44:43;;;;;;;10.20;9.93;;;26.00;46.90;;;;;;5053475;28;20542;-58
2021/12/05 15:47:13;;;;;;;14.33;13.90;;;25.90;47.00;;;;;;5053177;28;20986;-60
2021/12/05 15:49:52;;;;;;;15.23;14.73;;;25.80;46.90;;;;;;5053260;28;20455;-60
2021/12/05 15:52:27;;;;;;;14.23;13.73;;;25.70;47.00;;;;;;5052877;28;20488;-55
2021/12/05 15:54:56;;;;;;;14.03;13.63;;;25.70;47.20;;;;;;5052783;28;20486;-56
2021/12/05 15:57:31;;;;;;;14.33;13.93;;;25.80;47.40;;;;;;5053354;28;20559;-58
2021/12/05 15:59:59;;;;;;;14.23;13.73;;;26.10;47.00;;;;;;5052983;28;20549;-53
2021/12/05 16:02:26;;;;;;;14.90;14.40;;;26.20;46.60;;;;;;5052403;28;20444;-59
2021/12/05 16:04:56;;;;;;;15.33;14.83;;;26.10;46.40;;;;;;5052963;28;20922;-57
2021/12/05 16:07:27;;;;;;;14.17;13.77;;;26.10;46.40;;;;;;5052673;28;20846;-58
2021/12/05 16:10:07;;;;;;;14.17;13.70;;;26.10;46.50;;;;;;5052913;28;20459;-58
2021/12/05 16:12:39;;;;;;;15.50;15.00;;;26.00;46.50;;;;;;5052477;28;20964;-58
2021/12/05 16:15:06;;;;;;;14.40;13.80;;;25.90;46.60;;;;;;5052778;28;20476;-58
2021/12/05 16:17:33;;;;;;;14.50;14.00;;;25.90;46.80;;;;;;5052594;28;20878;-60
2021/12/05 16:20:16;;;;;;;15.03;14.63;;;26.00;46.80;;;;;;5052440;28;20964;-57
2021/12/05 16:23:08;;;;;;;14.70;14.20;;;26.20;46.50;;;;;;5052453;28;20452;-59
2021/12/05 16:25:39;;;;;;;13.87;13.47;;;26.30;46.20;;;;;;5052574;28;20451;-54
2021/12/05 16:28:11;;;;;;;14.00;13.57;;;26.20;46.20;;;;;;5052249;28;20510;-57
2021/12/05 16:30:42;;;;;;;14.90;14.37;;;26.10;46.20;;;;;;5032578;28;20449;-56
2021/12/05 16:33:10;;;;;;;14.30;13.90;;;26.10;46.30;;;;;;5032318;28;20467;-57
2021/12/05 16:35:39;;;;;;;15.23;14.53;;;26.00;46.40;;;;;;5032287;28;20496;-60
2021/12/05 16:38:22;;;;;;;14.40;14.00;;;25.90;46.50;;;;;;5032210;28;20477;-58
2021/12/05 16:41:00;;;;;;;14.47;13.97;;;25.90;46.60;;;;;;5032384;28;20451;-58
2021/12/05 16:43:29;;;;;;;13.77;13.27;;;26.10;46.60;;;;;;5032144;28;20472;-57
2021/12/05 16:45:58;;;;;;;15.30;14.80;;;26.30;46.30;;;;;;5032273;28;20939;-61
2021/12/05 16:48:25;;;;;;;14.20;13.70;;;26.40;45.90;;;;;;5034402;28;20472;-57
2021/12/05 16:50:52;;;;;;;13.93;13.53;;;26.30;45.80;;;;;;5052081;28;20501;-60
2021/12/05 16:53:34;;;;;;;15.13;14.53;;;26.30;46.00;;;;;;5051757;28;20456;-60
2021/12/05 16:56:03;;;;;;;15.13;14.63;;;26.20;46.00;;;;;;5051958;28;20467;-56
2021/12/05 16:58:30;;;;;;;14.00;13.60;;;26.10;46.20;;;;;;5051706;28;20468;-59
2021/12/05 17:00:56;;;;;;;15.40;14.90;;;26.00;46.20;;;;;;5051611;28;20447;-54